Time;durP1;ratioP1;P1;durP2;ratioP2;P2;SDS_P1;SDS_P2;PMS_P1;PMS_P2;Temp;Humidity;BMP_temperature;BMP_pressure;BME280_temperature;BME280_humidity;BME280_pressure;Samples;Min_cycle;Max_cycle;Signal;HPM_P1;HPM_P2
2021/01/25 00:01:35;;;;;;;11.15;7.57;;;-2.20;99.90;;;;;;5036467;28;20132;-82
2021/01/25 00:04:02;;;;;;;10.88;7.18;;;-2.40;99.90;;;;;;5037158;28;20047;-81
2021/01/25 00:06:28;;;;;;;11.13;6.63;;;-2.40;99.90;;;;;;5037421;28;20077;-81
2021/01/25 00:08:55;;;;;;;11.15;7.00;;;-2.40;99.90;;;;;;5037375;28;20049;-81
2021/01/25 00:11:21;;;;;;;9.55;6.60;;;-2.40;99.90;;;;;;5035517;28;20422;-81
2021/01/25 00:13:47;;;;;;;9.57;6.25;;;-2.40;99.90;;;;;;5036741;28;20042;-81
2021/01/25 00:16:14;;;;;;;10.13;6.88;;;-2.40;99.90;;;;;;5035387;28;20073;-81
2021/01/25 00:18:40;;;;;;;10.95;7.18;;;-2.50;99.90;;;;;;5034394;28;20077;-81
2021/01/25 00:21:06;;;;;;;11.48;6.68;;;-2.50;99.90;;;;;;5036828;28;20084;-81
2021/01/25 00:23:32;;;;;;;9.38;6.55;;;-2.60;99.90;;;;;;5034409;28;20081;-81
2021/01/25 00:25:58;;;;;;;10.25;6.80;;;-2.60;99.90;;;;;;5034225;28;20124;-81
2021/01/25 00:28:25;;;;;;;9.18;6.53;;;-2.60;99.90;;;;;;5033353;28;20141;-81
2021/01/25 00:30:51;;;;;;;10.20;6.43;;;-2.60;99.90;;;;;;5033109;28;20128;-81
2021/01/25 00:33:17;;;;;;;8.85;5.55;;;-2.60;99.90;;;;;;5034059;28;20072;-80
2021/01/25 00:35:44;;;;;;;9.63;6.05;;;-2.60;99.90;;;;;;5033530;28;20049;-81
2021/01/25 00:38:12;;;;;;;7.93;5.45;;;-2.70;99.90;;;;;;5034309;28;20063;-80
2021/01/25 00:40:39;;;;;;;9.02;5.97;;;-2.80;99.90;;;;;;5033934;28;20099;-81
2021/01/25 00:43:06;;;;;;;6.90;5.35;;;-2.80;99.90;;;;;;5033966;28;20100;-80
2021/01/25 00:45:32;;;;;;;7.32;5.22;;;-2.80;99.90;;;;;;5032591;28;20128;-80
2021/01/25 00:47:58;;;;;;;8.30;5.78;;;-2.90;99.90;;;;;;5032138;28;20080;-80
2021/01/25 00:50:25;;;;;;;11.15;5.28;;;-2.90;99.90;;;;;;5033923;28;20046;-80
2021/01/25 00:52:52;;;;;;;9.30;5.78;;;-3.00;99.90;;;;;;5032473;28;20482;-81
2021/01/25 00:55:18;;;;;;;7.88;5.57;;;-3.00;99.90;;;;;;5032087;28;20045;-80
2021/01/25 00:57:45;;;;;;;11.35;6.72;;;-3.10;99.90;;;;;;5032027;28;20045;-80
2021/01/25 01:00:13;;;;;;;11.48;6.05;;;-3.10;99.90;;;;;;5033210;28;20053;-81
2021/01/25 01:02:40;;;;;;;7.40;5.57;;;-3.20;99.90;;;;;;5033636;28;20046;-80
2021/01/25 01:05:08;;;;;;;11.63;6.85;;;-3.20;99.90;;;;;;5033693;28;20042;-79
2021/01/25 01:07:34;;;;;;;10.13;6.40;;;-3.20;99.90;;;;;;5032569;28;20088;-80
2021/01/25 01:10:01;;;;;;;9.00;6.07;;;-3.30;99.90;;;;;;5033322;28;20230;-79
2021/01/25 01:12:28;;;;;;;8.30;5.35;;;-3.40;99.90;;;;;;5033165;28;20053;-79
2021/01/25 01:14:54;;;;;;;8.02;5.80;;;-3.40;99.90;;;;;;5033262;28;20077;-80
2021/01/25 01:17:20;;;;;;;10.02;6.13;;;-3.40;99.90;;;;;;5033315;28;20100;-79
2021/01/25 01:19:47;;;;;;;9.27;5.30;;;-3.40;99.90;;;;;;5032346;28;20076;-79
2021/01/25 01:22:13;;;;;;;10.23;6.47;;;-3.40;99.90;;;;;;5031940;28;20050;-79
2021/01/25 01:24:39;;;;;;;12.48;6.68;;;-3.40;99.90;;;;;;5032927;28;20136;-79
2021/01/25 01:27:05;;;;;;;12.57;6.95;;;-3.30;99.90;;;;;;5036887;28;20506;-79
2021/01/25 01:29:31;;;;;;;9.27;5.95;;;-3.20;99.90;;;;;;5038443;28;20146;-79
2021/01/25 01:31:58;;;;;;;8.95;6.28;;;-3.10;99.90;;;;;;5038615;28;20085;-80
2021/01/25 01:34:24;;;;;;;9.23;6.00;;;-3.10;99.90;;;;;;5043161;28;20053;-81
2021/01/25 01:36:51;;;;;;;8.10;5.40;;;-3.10;99.90;;;;;;5045238;28;20127;-81
2021/01/25 01:39:17;;;;;;;8.90;5.63;;;-3.10;99.90;;;;;;5044038;28;20109;-81
2021/01/25 01:41:43;;;;;;;9.63;5.93;;;-3.20;99.90;;;;;;5043739;28;20063;-80
2021/01/25 01:44:10;;;;;;;12.10;6.78;;;-3.10;99.90;;;;;;5044672;28;20105;-80
2021/01/25 01:46:40;;;;;;;11.35;6.53;;;-3.10;99.90;;;;;;5042071;28;20087;-81
2021/01/25 01:49:08;;;;;;;9.40;5.72;;;-3.10;99.90;;;;;;5043426;28;20060;-80
2021/01/25 01:51:39;;;;;;;9.68;5.63;;;-3.10;99.90;;;;;;5043141;28;20133;-80
2021/01/25 01:54:06;;;;;;;10.65;6.53;;;-3.20;99.90;;;;;;5042146;28;20128;-80
2021/01/25 01:56:34;;;;;;;11.05;6.32;;;-3.20;99.90;;;;;;5041398;28;20045;-79
2021/01/25 01:59:01;;;;;;;12.35;7.20;;;-3.20;99.90;;;;;;5040400;28;20541;-79
2021/01/25 02:01:27;;;;;;;11.25;6.82;;;-3.20;99.90;;;;;;5038567;28;20077;-79
2021/01/25 02:03:55;;;;;;;8.95;5.65;;;-3.20;99.90;;;;;;5040296;28;20077;-79
2021/01/25 02:06:23;;;;;;;10.93;7.03;;;-3.20;99.90;;;;;;5039835;28;20132;-79
2021/01/25 02:08:50;;;;;;;10.32;6.25;;;-3.30;99.90;;;;;;5038790;28;20053;-79
2021/01/25 02:11:18;;;;;;;10.23;6.55;;;-3.30;99.90;;;;;;5038841;28;20156;-80
2021/01/25 02:13:46;;;;;;;12.52;6.80;;;-3.30;99.90;;;;;;5038571;28;20053;-79
2021/01/25 02:16:13;;;;;;;7.70;6.07;;;-3.40;99.90;;;;;;5038904;28;20056;-79
2021/01/25 02:18:39;;;;;;;8.55;5.47;;;-3.40;99.90;;;;;;5038536;28;20395;-79
2021/01/25 02:21:11;;;;;;;8.00;5.78;;;-3.50;99.90;;;;;;5039765;28;20049;-79
2021/01/25 02:23:46;;;;;;;11.45;5.60;;;-3.60;99.90;;;;;;5038413;28;20129;-79
2021/01/25 02:26:35;;;;;;;9.85;5.50;;;-3.70;99.90;;;;;;5038067;28;20041;-79
2021/01/25 02:29:02;;;;;;;7.45;5.10;;;-3.70;99.90;;;;;;5038190;28;20052;-79
2021/01/25 02:31:30;;;;;;;10.70;6.15;;;-3.80;99.90;;;;;;5038290;28;20080;-79
2021/01/25 02:33:58;;;;;;;10.80;5.78;;;-3.80;99.90;;;;;;5039277;28;20095;-79
2021/01/25 02:36:26;;;;;;;11.90;5.10;;;-3.80;99.90;;;;;;5038238;28;20077;-80
2021/01/25 02:38:53;;;;;;;10.50;5.82;;;-3.80;99.90;;;;;;5034588;28;20128;-80
2021/01/25 02:41:24;;;;;;;9.98;6.07;;;-3.80;99.90;;;;;;5036232;28;20093;-79
2021/01/25 02:43:52;;;;;;;7.18;5.32;;;-3.90;99.90;;;;;;5034866;28;20092;-79
2021/01/25 02:46:21;;;;;;;10.15;5.60;;;-3.80;99.90;;;;;;5038749;28;20091;-79
2021/01/25 02:48:47;;;;;;;7.60;5.22;;;-3.90;99.90;;;;;;5034623;28;20491;-79
2021/01/25 02:51:14;;;;;;;13.38;6.72;;;-3.90;99.90;;;;;;5034947;28;20052;-79
2021/01/25 02:53:40;;;;;;;10.05;5.65;;;-4.00;99.90;;;;;;5036333;28;20049;-79
2021/01/25 02:56:08;;;;;;;6.95;5.20;;;-4.00;99.90;;;;;;5036941;28;20077;-79
2021/01/25 02:58:35;;;;;;;8.20;5.32;;;-3.90;99.90;;;;;;5037261;28;20139;-79
2021/01/25 03:01:02;;;;;;;8.38;4.72;;;-4.00;99.90;;;;;;5038761;28;20053;-79
2021/01/25 03:03:30;;;;;;;9.98;5.38;;;-3.90;99.90;;;;;;5035439;28;20052;-79
2021/01/25 03:05:57;;;;;;;7.80;5.30;;;-4.00;99.90;;;;;;5035980;28;20049;-79
2021/01/25 03:08:27;;;;;;;9.82;5.47;;;-4.10;99.90;;;;;;5034443;28;20125;-79
2021/01/25 03:10:54;;;;;;;10.02;5.35;;;-4.20;99.90;;;;;;5035494;28;20045;-79
2021/01/25 03:13:26;;;;;;;7.10;4.80;;;-4.20;99.90;;;;;;5034751;28;20049;-79
2021/01/25 03:15:55;;;;;;;10.68;6.30;;;-4.30;99.90;;;;;;5035506;28;20049;-79
2021/01/25 03:18:22;;;;;;;10.80;5.47;;;-4.30;99.90;;;;;;5034190;28;20054;-79
2021/01/25 03:20:49;;;;;;;7.43;5.13;;;-4.30;99.90;;;;;;5035299;28;20080;-80
2021/01/25 03:23:16;;;;;;;7.68;4.93;;;-4.30;99.90;;;;;;5040700;28;20046;-81
2021/01/25 03:25:42;;;;;;;7.82;5.38;;;-4.40;99.90;;;;;;5039587;28;20073;-81
2021/01/25 03:28:10;;;;;;;10.45;5.18;;;-4.40;99.90;;;;;;5041061;28;20053;-81
2021/01/25 03:30:37;;;;;;;7.03;4.32;;;-4.40;99.90;;;;;;5039883;28;20054;-81
2021/01/25 03:33:04;;;;;;;10.70;5.55;;;-4.40;99.90;;;;;;5040065;28;20077;-81
2021/01/25 03:35:31;;;;;;;9.70;5.63;;;-4.40;99.90;;;;;;5040270;28;20064;-81
2021/01/25 03:37:57;;;;;;;11.65;6.47;;;-4.40;99.90;;;;;;5039947;28;20060;-80
2021/01/25 03:40:23;;;;;;;9.75;5.75;;;-4.30;99.90;;;;;;5039652;28;20084;-81
2021/01/25 03:42:49;;;;;;;9.25;6.07;;;-4.30;99.90;;;;;;5036977;28;20136;-81
2021/01/25 03:45:15;;;;;;;8.25;5.47;;;-4.30;99.90;;;;;;5036889;28;20053;-79
2021/01/25 03:47:42;;;;;;;7.22;4.85;;;-4.30;99.90;;;;;;5037840;28;20076;-80
2021/01/25 03:50:09;;;;;;;9.43;5.18;;;-4.30;99.90;;;;;;5036459;28;20125;-79
2021/01/25 03:52:36;;;;;;;7.90;4.68;;;-4.30;99.90;;;;;;5037847;28;20513;-80
2021/01/25 03:55:02;;;;;;;8.35;5.72;;;-4.30;99.90;;;;;;5037838;28;20105;-79
2021/01/25 03:57:28;;;;;;;8.50;5.55;;;-4.30;99.90;;;;;;5035715;28;20052;-80
2021/01/25 03:59:55;;;;;;;10.70;6.00;;;-4.30;99.90;;;;;;5036776;28;20055;-81
2021/01/25 04:02:21;;;;;;;10.63;5.68;;;-4.40;99.90;;;;;;5036894;28;20050;-81
2021/01/25 04:04:47;;;;;;;10.77;5.32;;;-4.40;99.90;;;;;;5036835;28;20049;-80
2021/01/25 04:07:14;;;;;;;9.05;5.53;;;-4.30;99.90;;;;;;5034735;28;20051;-81
2021/01/25 04:09:40;;;;;;;9.60;5.50;;;-4.30;99.90;;;;;;5034404;28;20052;-81
2021/01/25 04:12:08;;;;;;;9.40;5.35;;;-4.30;99.90;;;;;;5035813;28;20076;-79
2021/01/25 04:14:34;;;;;;;7.85;5.03;;;-4.30;99.90;;;;;;5034639;28;20080;-81
2021/01/25 04:17:01;;;;;;;10.48;5.38;;;-4.30;99.90;;;;;;5034127;28;20053;-79
2021/01/25 04:19:27;;;;;;;8.90;5.68;;;-4.20;99.90;;;;;;5035279;28;20513;-79
2021/01/25 04:21:54;;;;;;;9.63;6.28;;;-4.20;99.90;;;;;;5033230;28;20049;-80
2021/01/25 04:24:20;;;;;;;10.00;5.90;;;-4.20;99.90;;;;;;5033309;28;20136;-79
2021/01/25 04:26:46;;;;;;;7.97;5.32;;;-4.20;99.90;;;;;;5033105;28;20054;-79
2021/01/25 04:29:13;;;;;;;9.38;5.35;;;-4.20;99.90;;;;;;5033727;28;20132;-79
2021/01/25 04:31:39;;;;;;;9.50;6.68;;;-4.20;99.90;;;;;;5034283;28;20079;-79
2021/01/25 04:34:06;;;;;;;10.82;6.20;;;-4.00;99.90;;;;;;5033162;28;20132;-79
2021/01/25 04:36:33;;;;;;;9.38;5.30;;;-3.90;99.90;;;;;;5033197;28;20152;-80
2021/01/25 04:38:59;;;;;;;7.80;4.55;;;-3.90;99.90;;;;;;5034489;28;20164;-79
2021/01/25 04:41:26;;;;;;;8.82;4.55;;;-3.90;99.90;;;;;;5033615;28;20128;-79
2021/01/25 04:43:54;;;;;;;7.05;4.85;;;-4.00;99.90;;;;;;5032810;28;20406;-79
2021/01/25 04:46:22;;;;;;;9.00;4.78;;;-4.10;99.90;;;;;;5034574;28;20105;-79
2021/01/25 04:48:49;;;;;;;8.15;4.80;;;-4.20;99.90;;;;;;5033907;28;20049;-79
2021/01/25 04:51:16;;;;;;;8.18;4.80;;;-4.30;99.90;;;;;;5034089;28;20137;-79
2021/01/25 04:53:45;;;;;;;11.75;5.10;;;-4.30;99.90;;;;;;5034250;28;20084;-79
2021/01/25 04:56:12;;;;;;;7.18;4.53;;;-4.30;99.90;;;;;;5035853;28;20084;-80
2021/01/25 04:58:39;;;;;;;6.55;4.50;;;-4.30;99.90;;;;;;5036094;28;20485;-80
2021/01/25 05:01:05;;;;;;;7.47;4.95;;;-4.30;99.90;;;;;;5034033;28;20083;-80
2021/01/25 05:03:32;;;;;;;7.97;5.28;;;-4.30;99.90;;;;;;5034149;28;20128;-80
2021/01/25 05:05:58;;;;;;;6.07;4.55;;;-4.30;99.90;;;;;;5033971;28;20104;-79
2021/01/25 05:08:24;;;;;;;7.25;4.32;;;-4.30;99.90;;;;;;5033927;28;20270;-80
2021/01/25 05:10:51;;;;;;;6.93;4.88;;;-4.30;99.90;;;;;;5035602;28;20132;-81
2021/01/25 05:13:21;;;;;;;6.78;4.55;;;-4.20;99.90;;;;;;5036973;28;20084;-80
2021/01/25 05:15:50;;;;;;;5.95;4.22;;;-4.20;99.90;;;;;;5037230;28;20451;-81
2021/01/25 05:18:21;;;;;;;6.25;4.60;;;-4.20;99.90;;;;;;5038566;28;20054;-81
2021/01/25 05:20:53;;;;;;;6.25;4.63;;;-4.20;99.90;;;;;;5038037;28;20168;-80
2021/01/25 05:23:20;;;;;;;7.18;4.78;;;-4.20;99.90;;;;;;5036053;28;20127;-80
2021/01/25 05:25:46;;;;;;;9.05;5.28;;;-4.30;99.90;;;;;;5036935;28;20053;-79
2021/01/25 05:28:20;;;;;;;8.98;5.68;;;-4.30;99.90;;;;;;5035619;28;20073;-80
2021/01/25 05:30:46;;;;;;;7.88;4.95;;;-4.20;99.90;;;;;;5036831;28;20520;-80
2021/01/25 05:33:13;;;;;;;7.28;5.13;;;-4.20;99.90;;;;;;5036756;28;20045;-79
2021/01/25 05:35:42;;;;;;;8.80;5.28;;;-4.30;99.90;;;;;;5034999;28;20049;-80
2021/01/25 05:38:09;;;;;;;7.03;4.50;;;-4.30;99.90;;;;;;5036089;28;20056;-81
2021/01/25 05:40:38;;;;;;;6.97;4.80;;;-4.30;99.90;;;;;;5036200;28;20187;-80
2021/01/25 05:43:15;;;;;;;8.48;5.03;;;-4.30;99.90;;;;;;5036327;28;20092;-81
2021/01/25 05:45:42;;;;;;;8.40;4.68;;;-4.40;99.90;;;;;;5034727;28;20045;-80
2021/01/25 05:48:12;;;;;;;11.15;5.03;;;-4.50;99.90;;;;;;5034444;28;20085;-80
2021/01/25 05:50:40;;;;;;;9.07;5.57;;;-4.40;99.90;;;;;;5034549;28;20045;-80
2021/01/25 05:53:09;;;;;;;8.15;4.57;;;-4.40;99.90;;;;;;5036387;28;20080;-81
2021/01/25 05:55:36;;;;;;;7.65;5.50;;;-4.40;99.90;;;;;;5035103;28;20060;-80
2021/01/25 05:58:03;;;;;;;11.88;5.65;;;-4.50;99.90;;;;;;5035387;28;20064;-80
2021/01/25 06:00:31;;;;;;;11.82;5.82;;;-4.50;99.90;;;;;;5036051;28;20050;-80
2021/01/25 06:02:57;;;;;;;7.78;4.78;;;-4.60;99.90;;;;;;5036638;28;20046;-79
2021/01/25 06:05:30;;;;;;;6.93;5.32;;;-4.70;99.90;;;;;;5035213;28;20045;-80
2021/01/25 06:08:27;;;;;;;11.20;7.25;;;-4.70;99.90;;;;;;5034614;28;20502;-80
2021/01/25 06:11:21;;;;;;;7.93;5.00;;;-4.70;99.90;;;;;;5031632;28;20175;-80
2021/01/25 06:14:11;;;;;;;8.10;5.18;;;-4.70;99.90;;;;;;5036024;28;20077;-79
2021/01/25 06:16:37;;;;;;;7.82;4.75;;;-4.70;99.90;;;;;;5039797;28;20139;-79
2021/01/25 06:19:07;;;;;;;8.25;5.40;;;-4.60;99.90;;;;;;5039330;28;20482;-80
2021/01/25 06:21:37;;;;;;;9.90;5.95;;;-4.50;99.90;;;;;;5039466;28;20054;-80
2021/01/25 06:24:06;;;;;;;14.50;7.25;;;-4.60;99.90;;;;;;5038425;28;20122;-80
2021/01/25 06:26:34;;;;;;;16.05;9.30;;;-4.80;99.90;;;;;;5021256;28;20053;-79
2021/01/25 06:29:05;;;;;;;12.98;7.40;;;-4.80;99.90;;;;;;5037472;28;20077;-80
2021/01/25 06:31:36;;;;;;;15.75;8.15;;;-4.80;99.90;;;;;;5038404;28;20045;-80
2021/01/25 06:34:04;;;;;;;21.15;10.60;;;-4.70;99.90;;;;;;5039625;28;20053;-79
2021/01/25 06:36:33;;;;;;;16.15;7.05;;;-4.70;99.90;;;;;;5039219;28;20069;-80
2021/01/25 06:39:00;;;;;;;8.88;6.05;;;-4.60;99.90;;;;;;5040745;28;20064;-80
2021/01/25 06:41:41;;;;;;;9.65;6.50;;;-4.50;99.90;;;;;;5040415;28;20103;-80
2021/01/25 06:44:10;;;;;;;13.00;7.78;;;-4.40;99.90;;;;;;5040339;28;20088;-80
2021/01/25 06:46:38;;;;;;;12.32;8.30;;;-4.40;99.90;;;;;;5040819;28;20045;-80
2021/01/25 06:49:06;;;;;;;15.10;7.18;;;-4.50;99.90;;;;;;5039689;28;20465;-80
2021/01/25 06:51:47;;;;;;;13.98;7.57;;;-4.40;99.90;;;;;;5039451;28;20091;-80
2021/01/25 06:54:13;;;;;;;17.77;8.23;;;-4.30;99.90;;;;;;5039767;28;20049;-81
2021/01/25 06:56:43;;;;;;;13.30;7.72;;;-4.30;99.90;;;;;;5041244;28;20091;-81
2021/01/25 06:59:11;;;;;;;16.58;7.97;;;-4.10;99.90;;;;;;5040112;28;20088;-80
2021/01/25 07:01:40;;;;;;;15.38;8.10;;;-4.10;99.90;;;;;;5044912;28;20502;-80
2021/01/25 07:04:14;;;;;;;16.13;8.88;;;-4.00;99.90;;;;;;5038310;28;20065;-81
2021/01/25 07:06:50;;;;;;;15.20;7.10;;;-4.00;99.90;;;;;;5020476;28;20042;-80
2021/01/25 07:09:26;;;;;;;11.43;6.15;;;-3.90;99.90;;;;;;5020331;28;20085;-80
2021/01/25 07:11:54;;;;;;;9.10;6.15;;;-4.00;99.90;;;;;;5018427;28;20050;-80
2021/01/25 07:14:24;;;;;;;12.10;7.22;;;-4.00;99.90;;;;;;5018401;28;20053;-81
2021/01/25 07:16:55;;;;;;;11.15;7.18;;;-3.90;99.90;;;;;;5018085;28;20085;-81
2021/01/25 07:19:22;;;;;;;9.98;6.90;;;-4.00;99.90;;;;;;5018200;28;20099;-80
2021/01/25 07:21:50;;;;;;;18.13;8.80;;;-4.00;99.90;;;;;;5019436;28;20058;-79
2021/01/25 07:24:22;;;;;;;15.07;8.38;;;-4.10;99.90;;;;;;5017918;28;20053;-80
2021/01/25 07:26:52;;;;;;;18.00;8.93;;;-4.10;99.90;;;;;;5017176;28;20064;-80
2021/01/25 07:29:20;;;;;;;17.67;10.35;;;-4.10;99.90;;;;;;5018341;28;20124;-79
2021/01/25 07:31:46;;;;;;;11.45;7.32;;;-4.00;99.90;;;;;;5018075;28;20589;-79
2021/01/25 07:34:13;;;;;;;15.10;8.05;;;-3.90;99.90;;;;;;5016921;28;20116;-80
2021/01/25 07:36:40;;;;;;;12.82;7.70;;;-3.90;99.90;;;;;;5016125;28;20136;-80
2021/01/25 07:39:11;;;;;;;24.73;15.07;;;-3.90;99.90;;;;;;5018107;28;20112;-80
2021/01/25 07:41:39;;;;;;;13.18;8.02;;;-3.90;99.90;;;;;;5015878;28;20100;-79
2021/01/25 07:44:07;;;;;;;13.00;9.60;;;-3.70;99.90;;;;;;5016495;28;20077;-81
2021/01/25 07:46:34;;;;;;;14.10;8.30;;;-3.60;99.90;;;;;;5023290;28;20081;-80
2021/01/25 07:49:02;;;;;;;9.48;7.15;;;-3.40;99.90;;;;;;5037275;28;20050;-79
2021/01/25 07:51:32;;;;;;;12.98;8.45;;;-3.30;99.90;;;;;;5035509;28;20049;-80
2021/01/25 07:53:59;;;;;;;15.48;9.95;;;-3.20;99.90;;;;;;5036714;28;20081;-80
2021/01/25 07:56:26;;;;;;;14.15;9.52;;;-3.00;99.90;;;;;;5036865;28;20426;-80
2021/01/25 07:59:16;;;;;;;17.60;8.50;;;-2.90;99.90;;;;;;5035315;28;20087;-79
2021/01/25 08:01:53;;;;;;;12.32;8.20;;;-2.80;99.90;;;;;;5037526;28;20064;-79
2021/01/25 08:04:24;;;;;;;13.32;8.02;;;-2.70;99.90;;;;;;5036738;28;20597;-79
2021/01/25 08:06:53;;;;;;;13.90;8.38;;;-2.60;99.90;;;;;;5034970;28;20049;-79
2021/01/25 08:09:21;;;;;;;12.68;8.55;;;-2.50;99.90;;;;;;5034777;28;20057;-79
2021/01/25 08:11:49;;;;;;;10.98;7.63;;;-2.40;99.90;;;;;;5036194;28;20537;-79
2021/01/25 08:14:38;;;;;;;11.07;7.15;;;-2.30;99.90;;;;;;5034946;28;20429;-79
2021/01/25 08:17:08;;;;;;;12.57;7.72;;;-2.20;99.90;;;;;;5034830;28;20076;-79
2021/01/25 08:19:46;;;;;;;12.52;7.85;;;-2.20;99.90;;;;;;5034591;28;20045;-79
2021/01/25 08:22:24;;;;;;;14.27;8.32;;;-2.10;99.90;;;;;;5034939;28;20069;-79
2021/01/25 08:24:58;;;;;;;14.50;8.40;;;-2.00;99.90;;;;;;5033359;28;20455;-79
2021/01/25 08:27:26;;;;;;;13.15;8.80;;;-1.90;99.90;;;;;;5033777;28;20045;-79
2021/01/25 08:30:05;;;;;;;12.88;7.85;;;-1.80;99.90;;;;;;5034739;28;20183;-79
2021/01/25 08:32:46;;;;;;;13.38;8.38;;;-1.70;99.90;;;;;;5033374;28;20099;-79
2021/01/25 08:35:13;;;;;;;14.10;9.07;;;-1.70;99.90;;;;;;5032823;28;20133;-79
2021/01/25 08:37:40;;;;;;;14.80;8.38;;;-1.50;99.90;;;;;;5032589;28;20053;-79
2021/01/25 08:40:16;;;;;;;15.05;8.57;;;-1.50;99.90;;;;;;5033408;28;20572;-79
2021/01/25 08:42:42;;;;;;;11.98;9.32;;;-1.40;99.90;;;;;;5035375;28;20103;-80
2021/01/25 08:45:21;;;;;;;12.98;8.10;;;-1.40;99.90;;;;;;5034551;28;20050;-80
2021/01/25 08:47:47;;;;;;;10.55;7.95;;;-1.30;99.90;;;;;;5035338;28;20069;-80
2021/01/25 08:50:25;;;;;;;12.77;7.30;;;-1.30;99.90;;;;;;5035006;28;20042;-80
2021/01/25 08:53:01;;;;;;;14.85;8.70;;;-1.20;99.90;;;;;;5038031;28;20554;-80
2021/01/25 08:55:47;;;;;;;11.50;8.73;;;-1.10;99.90;;;;;;5012817;28;20046;-80
2021/01/25 08:58:18;;;;;;;14.65;10.23;;;-1.10;99.90;;;;;;5017702;28;20526;-80
2021/01/25 09:00:48;;;;;;;10.93;8.38;;;-1.00;99.90;;;;;;5017157;28;20081;-81
2021/01/25 09:03:15;;;;;;;14.45;8.60;;;-0.80;99.90;;;;;;5020618;28;20052;-81
2021/01/25 09:05:42;;;;;;;11.35;8.20;;;-0.80;99.90;;;;;;5019930;28;20046;-81
2021/01/25 09:08:09;;;;;;;10.02;7.22;;;-0.70;99.90;;;;;;5020176;28;20100;-81
2021/01/25 09:10:35;;;;;;;8.52;7.13;;;-0.50;99.90;;;;;;5019439;28;20077;-81
2021/01/25 09:13:02;;;;;;;11.00;7.57;;;-0.40;99.90;;;;;;5016639;28;20068;-80
2021/01/25 09:15:40;;;;;;;10.93;7.65;;;-0.30;99.90;;;;;;5026569;28;20129;-81
2021/01/25 09:18:11;;;;;;;9.05;7.25;;;-0.30;99.90;;;;;;5018061;28;20063;-81
2021/01/25 09:20:38;;;;;;;9.32;6.50;;;-0.20;99.90;;;;;;5015114;28;20418;-79
2021/01/25 09:23:08;;;;;;;8.98;6.13;;;-0.10;99.90;;;;;;5013719;28;20042;-82
2021/01/25 09:25:35;;;;;;;13.55;7.22;;;0.00;99.90;;;;;;5016658;28;20050;-80
2021/01/25 09:28:02;;;;;;;9.48;7.10;;;0.10;99.90;;;;;;5015651;28;20073;-82
2021/01/25 09:30:31;;;;;;;9.30;7.28;;;0.30;99.90;;;;;;5016000;28;20072;-82
2021/01/25 09:32:58;;;;;;;15.20;10.52;;;0.30;99.90;;;;;;5021480;28;20057;-81
2021/01/25 09:35:26;;;;;;;22.73;15.15;;;0.30;99.90;;;;;;5030074;28;20057;-81
2021/01/25 09:37:55;;;;;;;16.92;12.68;;;0.20;99.90;;;;;;5027500;28;20453;-82
2021/01/25 09:40:24;;;;;;;13.52;8.93;;;0.40;99.90;;;;;;5021414;28;20422;-81
2021/01/25 09:42:55;;;;;;;16.02;11.13;;;0.30;99.90;;;;;;5013124;28;20572;-81
2021/01/25 09:45:24;;;;;;;;;;;0.10;99.90;;;;;;5015443;28;20145;-80
2021/01/25 09:47:54;;;;;;;15.60;8.95;;;0.00;99.90;;;;;;5016770;28;20271;-82
2021/01/25 09:50:21;;;;;;;14.10;9.60;;;0.40;99.90;;;;;;5016832;28;20073;-82
2021/01/25 09:52:51;;;;;;;15.98;8.77;;;0.30;99.90;;;;;;5018002;28;20050;-82
2021/01/25 09:55:19;;;;;;;13.05;8.85;;;0.70;99.90;;;;;;5017045;28;20085;-82
2021/01/25 09:57:46;;;;;;;11.98;8.93;;;0.70;99.90;;;;;;5017565;28;20058;-82
2021/01/25 10:00:16;;;;;;;12.52;8.45;;;0.70;99.90;;;;;;5019797;28;20056;-82
2021/01/25 10:02:45;;;;;;;10.30;7.63;;;0.90;99.90;;;;;;5018486;28;20093;-82
2021/01/25 10:05:15;;;;;;;11.70;8.35;;;1.30;99.90;;;;;;5018185;28;20564;-83
2021/01/25 10:07:41;;;;;;;9.55;6.45;;;1.80;99.90;;;;;;5018774;28;20525;-82
2021/01/25 10:10:11;;;;;;;7.78;6.03;;;2.10;99.90;;;;;;5017697;28;20046;-83
2021/01/25 10:12:37;;;;;;;5.53;4.97;;;2.50;99.90;;;;;;5018961;28;20391;-82
2021/01/25 10:15:07;;;;;;;6.10;4.57;;;2.60;99.90;;;;;;5017400;28;20132;-82
2021/01/25 10:17:34;;;;;;;5.20;4.70;;;2.80;99.90;;;;;;5017592;28;20046;-81
2021/01/25 10:20:00;;;;;;;6.30;3.78;;;3.30;99.90;;;;;;5018110;28;20050;-82
2021/01/25 10:22:27;;;;;;;5.22;4.53;;;3.50;99.90;;;;;;5017982;28;20415;-82
2021/01/25 10:24:53;;;;;;;6.22;4.55;;;4.20;99.90;;;;;;5017958;28;20046;-82
2021/01/25 10:27:19;;;;;;;4.82;4.30;;;4.40;99.90;;;;;;5016701;28;20419;-81
2021/01/25 10:29:45;;;;;;;4.97;3.67;;;4.50;99.90;;;;;;5015753;28;20096;-81
2021/01/25 10:32:15;;;;;;;4.82;4.30;;;4.70;99.90;;;;;;5016345;28;20053;-81
2021/01/25 10:34:43;;;;;;;4.68;4.18;;;4.80;99.90;;;;;;5016435;28;20046;-81
2021/01/25 10:37:10;;;;;;;4.20;3.83;;;4.90;99.90;;;;;;5016256;28;20053;-80
2021/01/25 10:39:36;;;;;;;4.10;3.80;;;5.30;99.90;;;;;;5015592;28;20056;-82
2021/01/25 10:42:02;;;;;;;4.35;3.80;;;5.60;99.90;;;;;;5018246;28;20050;-82
2021/01/25 10:44:28;;;;;;;5.65;3.63;;;5.90;99.90;;;;;;5016532;28;20041;-81
2021/01/25 10:46:54;;;;;;;4.25;3.65;;;6.20;99.90;;;;;;5016998;28;20129;-81
2021/01/25 10:49:21;;;;;;;4.10;3.70;;;6.10;99.90;;;;;;5017053;28;20058;-82
2021/01/25 10:51:47;;;;;;;5.15;3.75;;;6.10;99.90;;;;;;5017046;28;20069;-81
2021/01/25 10:54:14;;;;;;;4.40;4.00;;;6.00;99.90;;;;;;5018313;28;20403;-82
2021/01/25 10:56:40;;;;;;;6.45;4.80;;;5.60;99.90;;;;;;5017661;28;20092;-81
2021/01/25 10:59:06;;;;;;;4.70;3.53;;;5.00;99.90;;;;;;5016544;28;20132;-81
2021/01/25 11:01:33;;;;;;;4.05;3.72;;;4.60;99.90;;;;;;5020324;28;20053;-81
2021/01/25 11:03:59;;;;;;;4.20;3.80;;;4.30;99.90;;;;;;5024536;28;20058;-81
2021/01/25 11:06:28;;;;;;;4.20;3.80;;;4.40;99.90;;;;;;5027069;28;20104;-81
2021/01/25 11:08:55;;;;;;;3.15;2.95;;;4.90;99.90;;;;;;5024938;28;20042;-81
2021/01/25 11:11:21;;;;;;;6.22;3.75;;;5.80;99.90;;;;;;5024115;28;20046;-82
2021/01/25 11:13:47;;;;;;;3.10;2.90;;;6.80;99.90;;;;;;5024080;28;20213;-81
2021/01/25 11:16:14;;;;;;;3.53;3.22;;;7.30;99.90;;;;;;5028516;28;20050;-81
2021/01/25 11:18:40;;;;;;;3.65;2.95;;;8.40;99.90;;;;;;5023009;28;20054;-81
2021/01/25 11:21:06;;;;;;;4.30;3.35;;;8.80;97.70;;;;;;5021629;28;20499;-82
2021/01/25 11:23:32;;;;;;;3.28;2.97;;;9.60;99.90;;;;;;5020926;28;20053;-81
2021/01/25 11:25:59;;;;;;;6.55;4.10;;;10.50;90.80;;;;;;5018956;28;20054;-81
2021/01/25 11:28:25;;;;;;;10.80;4.60;;;10.80;85.00;;;;;;5020719;28;20073;-82
2021/01/25 11:30:51;;;;;;;8.30;4.40;;;10.90;80.50;;;;;;5022226;28;20069;-81
2021/01/25 11:33:18;;;;;;;10.05;4.88;;;11.30;79.50;;;;;;5018974;28;20052;-81
2021/01/25 11:35:44;;;;;;;4.95;3.80;;;11.20;76.30;;;;;;5017692;28;20054;-81
2021/01/25 11:38:11;;;;;;;6.53;3.70;;;10.90;76.80;;;;;;5018827;28;20088;-81
2021/01/25 11:40:37;;;;;;;11.65;3.85;;;10.70;75.70;;;;;;5013809;28;20069;-81
2021/01/25 11:43:03;;;;;;;4.03;3.10;;;10.70;76.60;;;;;;5018414;28;20050;-81
2021/01/25 11:45:29;;;;;;;3.70;3.22;;;10.80;78.10;;;;;;5017794;28;20081;-80
2021/01/25 11:47:56;;;;;;;6.20;3.38;;;9.30;83.00;;;;;;5029873;28;20103;-81
2021/01/25 11:50:23;;;;;;;4.65;3.25;;;8.40;91.80;;;;;;5038884;28;20120;-81
2021/01/25 11:52:49;;;;;;;4.05;3.15;;;7.90;93.10;;;;;;5039795;28;20054;-81
2021/01/25 11:55:15;;;;;;;5.65;3.28;;;7.50;99.50;;;;;;5035576;28;20073;-81
2021/01/25 11:57:41;;;;;;;3.72;3.28;;;7.90;97.00;;;;;;5039180;28;20057;-81
2021/01/25 12:00:08;;;;;;;4.43;3.35;;;7.30;99.90;;;;;;5035121;28;20541;-80
2021/01/25 12:02:35;;;;;;;4.28;3.53;;;7.70;99.90;;;;;;5036482;28;20073;-80
2021/01/25 12:05:01;;;;;;;7.18;3.10;;;7.50;99.90;;;;;;5036795;28;20517;-81
2021/01/25 12:07:27;;;;;;;5.03;3.53;;;6.30;99.90;;;;;;5037993;28;20072;-81
2021/01/25 12:09:54;;;;;;;3.40;3.13;;;5.90;99.90;;;;;;5038944;28;20052;-81
2021/01/25 12:12:20;;;;;;;22.45;11.63;;;5.30;99.90;;;;;;5036287;28;20053;-80
2021/01/25 12:14:46;;;;;;;8.10;4.88;;;4.80;99.90;;;;;;5036625;28;20096;-80
2021/01/25 12:17:13;;;;;;;9.38;8.40;;;4.40;99.90;;;;;;5035522;28;20509;-80
2021/01/25 12:19:40;;;;;;;3.97;3.58;;;4.30;99.90;;;;;;5035525;28;20055;-80
2021/01/25 12:22:06;;;;;;;15.27;9.07;;;4.20;99.90;;;;;;5036659;28;20088;-80
2021/01/25 12:24:32;;;;;;;21.17;16.63;;;4.10;99.90;;;;;;5035367;28;20045;-80
2021/01/25 12:26:58;;;;;;;12.90;8.43;;;3.90;99.90;;;;;;5036828;28;20085;-80
2021/01/25 12:29:25;;;;;;;497.40;273.58;;;3.90;99.90;;;;;;5035604;28;20529;-80
2021/01/25 12:31:51;;;;;;;313.20;148.43;;;3.70;99.90;;;;;;5034793;28;20268;-79
2021/01/25 12:34:17;;;;;;;69.18;31.70;;;3.60;99.90;;;;;;5034548;28;20088;-80
2021/01/25 12:36:44;;;;;;;350.77;140.57;;;3.70;99.90;;;;;;5037351;28;20076;-81
2021/01/25 12:39:10;;;;;;;245.48;92.55;;;3.50;99.90;;;;;;5040024;28;20168;-80
2021/01/25 12:41:37;;;;;;;162.52;63.58;;;3.50;99.90;;;;;;5038701;28;20465;-81
2021/01/25 12:44:03;;;;;;;221.55;95.93;;;3.50;99.90;;;;;;5039665;28;20108;-80
2021/01/25 12:46:34;;;;;;;473.75;252.40;;;3.50;99.90;;;;;;5039113;28;20080;-80
2021/01/25 12:49:03;;;;;;;296.42;129.45;;;3.30;99.90;;;;;;5037547;28;20136;-80